TDPD/DOM METAR and TAF weather

Enter ICAO airport designator
Station Type Date Time Source
TDPD METAR 2022/01/23 11:00 UTC NOAA

TDPD 231100Z 18002KT 9999 SCT016 23/20 Q1015


Station Type Date Time Source
TDPD Decoded METAR 2022/01/23 11:00 UTC NOAA

Melville Hall Airport, Dominica (TDPD) 15-32N 061-18W 14M
Jan 23, 2022 - 06:00 AM EST / 2022.01.23 1100 UTC
Wind: from the S (180 degrees) at 2 MPH (2 KT):0
Visibility: greater than 7 mile(s):0
Sky conditions: partly cloudy
Temperature: 73 F (23 C)
Dew Point: 68 F (20 C)
Relative Humidity: 83%
Pressure (altimeter): 29.97 in. Hg (1015 hPa)
ob: TDPD 231100Z 18002KT 9999 SCT016 23/20 Q1015
cycle: 11

Station Type Date Time Source
TDPD TAF 2022/01/23 12:15 UTC NOAA

TAF TDPD 231100Z 2312/2412 10010KT 9999 BKN018

Example: see airport list